sensor_id;sensor_type;location;lat;lon;timestamp;pressure;altitude;pressure_sealevel;temperature;humidity
56681;BME280;42558;52.388;13.390;2022-11-27T00:01:43;102494.90;;;5.56;100.00
56681;BME280;42558;52.388;13.390;2022-11-27T00:04:12;102491.64;;;5.57;100.00
56681;BME280;42558;52.388;13.390;2022-11-27T00:06:42;102493.38;;;5.54;100.00
56681;BME280;42558;52.388;13.390;2022-11-27T00:09:14;102490.96;;;5.52;100.00
56681;BME280;42558;52.388;13.390;2022-11-27T00:11:44;102492.13;;;5.51;100.00
56681;BME280;42558;52.388;13.390;2022-11-27T00:14:15;102491.59;;;5.51;100.00
56681;BME280;42558;52.388;13.390;2022-11-27T00:16:44;102486.76;;;5.46;100.00
56681;BME280;42558;52.388;13.390;2022-11-27T00:19:14;102485.90;;;5.43;100.00
56681;BME280;42558;52.388;13.390;2022-11-27T00:21:44;102483.69;;;5.41;100.00
56681;BME280;42558;52.388;13.390;2022-11-27T00:24:14;102486.26;;;5.41;100.00
56681;BME280;42558;52.388;13.390;2022-11-27T00:26:43;102487.14;;;5.38;100.00
56681;BME280;42558;52.388;13.390;2022-11-27T00:29:14;102487.55;;;5.34;100.00
56681;BME280;42558;52.388;13.390;2022-11-27T00:31:44;102487.89;;;5.31;100.00
56681;BME280;42558;52.388;13.390;2022-11-27T00:34:14;102489.02;;;5.27;100.00
56681;BME280;42558;52.388;13.390;2022-11-27T00:36:44;102487.43;;;5.23;100.00
56681;BME280;42558;52.388;13.390;2022-11-27T00:39:14;102488.98;;;5.23;100.00
56681;BME280;42558;52.388;13.390;2022-11-27T00:41:44;102488.10;;;5.23;100.00
56681;BME280;42558;52.388;13.390;2022-11-27T00:44:14;102491.29;;;5.24;100.00
56681;BME280;42558;52.388;13.390;2022-11-27T00:46:44;102493.73;;;5.24;100.00
56681;BME280;42558;52.388;13.390;2022-11-27T00:49:14;102493.94;;;5.24;100.00
56681;BME280;42558;52.388;13.390;2022-11-27T00:51:44;102493.61;;;5.25;100.00
56681;BME280;42558;52.388;13.390;2022-11-27T00:54:13;102489.14;;;5.23;100.00
56681;BME280;42558;52.388;13.390;2022-11-27T00:56:43;102484.11;;;5.20;100.00
56681;BME280;42558;52.388;13.390;2022-11-27T00:59:13;102480.68;;;5.24;100.00
56681;BME280;42558;52.388;13.390;2022-11-27T01:01:45;102480.95;;;5.26;100.00
56681;BME280;42558;52.388;13.390;2022-11-27T01:04:15;102485.38;;;5.24;100.00
56681;BME280;42558;52.388;13.390;2022-11-27T01:06:45;102485.20;;;5.27;100.00
56681;BME280;42558;52.388;13.390;2022-11-27T01:09:15;102479.38;;;5.29;100.00
56681;BME280;42558;52.388;13.390;2022-11-27T01:11:45;102480.98;;;5.29;100.00
56681;BME280;42558;52.388;13.390;2022-11-27T01:14:17;102478.08;;;5.30;100.00
56681;BME280;42558;52.388;13.390;2022-11-27T01:16:46;102475.47;;;5.30;100.00
56681;BME280;42558;52.388;13.390;2022-11-27T01:19:16;102471.67;;;5.31;100.00
56681;BME280;42558;52.388;13.390;2022-11-27T01:21:46;102460.84;;;5.30;100.00
56681;BME280;42558;52.388;13.390;2022-11-27T01:24:16;102456.48;;;5.30;100.00
56681;BME280;42558;52.388;13.390;2022-11-27T01:26:46;102458.98;;;5.31;100.00
56681;BME280;42558;52.388;13.390;2022-11-27T01:29:16;102462.61;;;5.31;100.00
56681;BME280;42558;52.388;13.390;2022-11-27T01:31:46;102460.29;;;5.30;100.00
56681;BME280;42558;52.388;13.390;2022-11-27T01:34:17;102460.27;;;5.29;100.00
56681;BME280;42558;52.388;13.390;2022-11-27T01:36:46;102465.36;;;5.30;100.00
56681;BME280;42558;52.388;13.390;2022-11-27T01:39:19;102461.14;;;5.29;100.00
56681;BME280;42558;52.388;13.390;2022-11-27T01:41:47;102458.46;;;5.29;100.00
56681;BME280;42558;52.388;13.390;2022-11-27T01:47:00;102447.44;;;5.25;100.00
56681;BME280;42558;52.388;13.390;2022-11-27T01:52:23;102431.39;;;5.22;100.00
56681;BME280;42558;52.388;13.390;2022-11-27T01:55:08;102425.08;;;5.19;100.00
56681;BME280;42558;52.388;13.390;2022-11-27T01:57:44;102421.10;;;5.16;100.00
56681;BME280;42558;52.388;13.390;2022-11-27T02:00:17;102422.29;;;5.13;100.00
56681;BME280;42558;52.388;13.390;2022-11-27T02:02:47;102421.87;;;5.12;100.00
56681;BME280;42558;52.388;13.390;2022-11-27T02:05:22;102418.29;;;5.08;100.00
56681;BME280;42558;52.388;13.390;2022-11-27T02:07:55;102416.20;;;5.05;100.00
56681;BME280;42558;52.388;13.390;2022-11-27T02:11:02;102413.14;;;5.01;100.00
56681;BME280;42558;52.388;13.390;2022-11-27T02:13:38;102410.06;;;4.99;100.00
56681;BME280;42558;52.388;13.390;2022-11-27T02:16:23;102408.67;;;4.96;100.00
56681;BME280;42558;52.388;13.390;2022-11-27T02:19:12;102408.58;;;4.92;100.00
56681;BME280;42558;52.388;13.390;2022-11-27T02:21:59;102407.48;;;4.86;100.00
56681;BME280;42558;52.388;13.390;2022-11-27T02:24:53;102413.63;;;4.81;100.00
56681;BME280;42558;52.388;13.390;2022-11-27T02:27:58;102413.70;;;4.77;100.00
56681;BME280;42558;52.388;13.390;2022-11-27T02:30:38;102412.42;;;4.70;100.00
56681;BME280;42558;52.388;13.390;2022-11-27T02:33:11;102414.61;;;4.72;100.00
56681;BME280;42558;52.388;13.390;2022-11-27T02:35:59;102415.45;;;4.69;100.00
56681;BME280;42558;52.388;13.390;2022-11-27T02:38:40;102419.17;;;4.67;100.00
56681;BME280;42558;52.388;13.390;2022-11-27T02:41:19;102422.13;;;4.63;100.00
56681;BME280;42558;52.388;13.390;2022-11-27T02:43:51;102423.25;;;4.62;100.00
56681;BME280;42558;52.388;13.390;2022-11-27T02:46:22;102426.04;;;4.54;100.00
56681;BME280;42558;52.388;13.390;2022-11-27T02:48:57;102425.63;;;4.53;100.00
56681;BME280;42558;52.388;13.390;2022-11-27T02:51:37;102428.16;;;4.47;100.00
56681;BME280;42558;52.388;13.390;2022-11-27T02:54:13;102430.09;;;4.36;100.00
56681;BME280;42558;52.388;13.390;2022-11-27T02:56:46;102428.98;;;4.30;100.00
56681;BME280;42558;52.388;13.390;2022-11-27T02:59:18;102430.98;;;4.26;100.00
56681;BME280;42558;52.388;13.390;2022-11-27T03:01:54;102435.00;;;4.16;100.00
56681;BME280;42558;52.388;13.390;2022-11-27T03:04:33;102432.11;;;4.12;100.00
56681;BME280;42558;52.388;13.390;2022-11-27T03:07:13;102434.00;;;4.08;100.00
56681;BME280;42558;52.388;13.390;2022-11-27T03:09:50;102430.20;;;3.99;100.00
56681;BME280;42558;52.388;13.390;2022-11-27T03:12:22;102425.19;;;3.89;100.00
56681;BME280;42558;52.388;13.390;2022-11-27T03:14:52;102426.88;;;3.80;100.00
56681;BME280;42558;52.388;13.390;2022-11-27T03:22:28;102423.86;;;3.69;100.00
56681;BME280;42558;52.388;13.390;2022-11-27T03:25:00;102420.77;;;3.67;100.00
56681;BME280;42558;52.388;13.390;2022-11-27T03:27:38;102416.95;;;3.67;100.00
56681;BME280;42558;52.388;13.390;2022-11-27T03:30:10;102418.56;;;3.63;100.00
56681;BME280;42558;52.388;13.390;2022-11-27T03:32:40;102417.10;;;3.60;100.00
56681;BME280;42558;52.388;13.390;2022-11-27T03:35:16;102414.50;;;3.60;100.00
56681;BME280;42558;52.388;13.390;2022-11-27T03:37:47;102412.91;;;3.60;100.00
56681;BME280;42558;52.388;13.390;2022-11-27T03:40:18;102413.61;;;3.54;100.00
56681;BME280;42558;52.388;13.390;2022-11-27T03:43:13;102413.98;;;3.57;100.00
56681;BME280;42558;52.388;13.390;2022-11-27T03:46:05;102412.69;;;3.56;100.00
56681;BME280;42558;52.388;13.390;2022-11-27T03:49:01;102417.25;;;3.54;100.00
56681;BME280;42558;52.388;13.390;2022-11-27T03:52:20;102412.02;;;3.46;100.00
56681;BME280;42558;52.388;13.390;2022-11-27T03:55:26;102416.89;;;3.46;100.00
56681;BME280;42558;52.388;13.390;2022-11-27T03:58:58;102412.05;;;3.41;100.00
56681;BME280;42558;52.388;13.390;2022-11-27T04:01:30;102409.85;;;3.42;100.00
56681;BME280;42558;52.388;13.390;2022-11-27T04:04:00;102412.23;;;3.34;100.00
56681;BME280;42558;52.388;13.390;2022-11-27T04:06:30;102412.41;;;3.34;100.00
56681;BME280;42558;52.388;13.390;2022-11-27T04:09:00;102412.48;;;3.28;100.00
56681;BME280;42558;52.388;13.390;2022-11-27T04:11:30;102413.19;;;3.21;100.00
56681;BME280;42558;52.388;13.390;2022-11-27T04:14:00;102410.06;;;3.23;100.00
56681;BME280;42558;52.388;13.390;2022-11-27T04:16:29;102406.62;;;3.21;100.00
56681;BME280;42558;52.388;13.390;2022-11-27T04:18:59;102406.27;;;3.19;100.00
56681;BME280;42558;52.388;13.390;2022-11-27T04:21:29;102406.70;;;3.17;100.00
56681;BME280;42558;52.388;13.390;2022-11-27T04:23:59;102407.64;;;3.16;100.00
56681;BME280;42558;52.388;13.390;2022-11-27T04:26:29;102410.21;;;3.18;100.00
56681;BME280;42558;52.388;13.390;2022-11-27T04:28:56;102412.27;;;3.10;100.00
56681;BME280;42558;52.388;13.390;2022-11-27T04:31:23;102411.20;;;3.12;100.00
56681;BME280;42558;52.388;13.390;2022-11-27T04:33:53;102410.20;;;3.08;100.00
56681;BME280;42558;52.388;13.390;2022-11-27T04:36:22;102412.39;;;3.05;100.00
56681;BME280;42558;52.388;13.390;2022-11-27T04:38:52;102407.48;;;3.06;100.00
56681;BME280;42558;52.388;13.390;2022-11-27T04:41:22;102410.72;;;3.08;100.00
56681;BME280;42558;52.388;13.390;2022-11-27T04:43:52;102410.48;;;3.04;100.00
56681;BME280;42558;52.388;13.390;2022-11-27T04:46:21;102411.23;;;3.03;100.00
56681;BME280;42558;52.388;13.390;2022-11-27T04:48:52;102413.44;;;3.05;100.00
56681;BME280;42558;52.388;13.390;2022-11-27T04:51:22;102413.06;;;3.09;100.00
56681;BME280;42558;52.388;13.390;2022-11-27T04:53:52;102412.46;;;3.05;100.00
56681;BME280;42558;52.388;13.390;2022-11-27T04:56:21;102413.08;;;2.94;100.00
56681;BME280;42558;52.388;13.390;2022-11-27T04:58:51;102414.15;;;2.99;100.00
56681;BME280;42558;52.388;13.390;2022-11-27T05:01:21;102417.58;;;2.91;100.00
56681;BME280;42558;52.388;13.390;2022-11-27T05:03:51;102418.10;;;2.89;100.00
56681;BME280;42558;52.388;13.390;2022-11-27T05:06:21;102417.78;;;2.87;100.00
56681;BME280;42558;52.388;13.390;2022-11-27T05:08:53;102409.58;;;2.65;100.00
56681;BME280;42558;52.388;13.390;2022-11-27T05:11:30;102405.09;;;2.51;100.00
56681;BME280;42558;52.388;13.390;2022-11-27T05:14:00;102408.50;;;2.45;100.00
56681;BME280;42558;52.388;13.390;2022-11-27T05:16:52;102411.75;;;2.42;100.00
56681;BME280;42558;52.388;13.390;2022-11-27T05:19:23;102409.52;;;2.42;100.00
56681;BME280;42558;52.388;13.390;2022-11-27T05:21:53;102414.41;;;2.50;100.00
56681;BME280;42558;52.388;13.390;2022-11-27T05:24:23;102417.57;;;2.36;100.00
56681;BME280;42558;52.388;13.390;2022-11-27T05:26:55;102412.41;;;2.30;100.00
56681;BME280;42558;52.388;13.390;2022-11-27T05:29:26;102414.43;;;2.24;100.00
56681;BME280;42558;52.388;13.390;2022-11-27T05:31:55;102418.23;;;2.26;100.00
56681;BME280;42558;52.388;13.390;2022-11-27T05:34:25;102415.46;;;2.38;100.00
56681;BME280;42558;52.388;13.390;2022-11-27T05:36:55;102411.88;;;2.32;100.00
56681;BME280;42558;52.388;13.390;2022-11-27T05:39:25;102418.16;;;2.28;100.00
56681;BME280;42558;52.388;13.390;2022-11-27T05:41:55;102413.24;;;2.25;100.00
56681;BME280;42558;52.388;13.390;2022-11-27T05:44:25;102417.62;;;2.18;100.00
56681;BME280;42558;52.388;13.390;2022-11-27T05:46:55;102422.22;;;2.28;100.00
56681;BME280;42558;52.388;13.390;2022-11-27T05:49:25;102425.23;;;2.22;100.00
56681;BME280;42558;52.388;13.390;2022-11-27T05:51:55;102421.10;;;2.14;100.00
56681;BME280;42558;52.388;13.390;2022-11-27T05:54:25;102420.06;;;2.23;100.00
56681;BME280;42558;52.388;13.390;2022-11-27T05:56:55;102417.25;;;2.27;100.00
56681;BME280;42558;52.388;13.390;2022-11-27T05:59:25;102415.93;;;2.26;100.00
56681;BME280;42558;52.388;13.390;2022-11-27T06:01:54;102403.86;;;2.03;100.00
56681;BME280;42558;52.388;13.390;2022-11-27T06:04:24;102399.88;;;1.75;100.00
56681;BME280;42558;52.388;13.390;2022-11-27T06:06:54;102391.89;;;1.91;100.00
56681;BME280;42558;52.388;13.390;2022-11-27T06:09:24;102392.71;;;2.00;100.00
56681;BME280;42558;52.388;13.390;2022-11-27T06:11:53;102387.36;;;1.99;100.00
56681;BME280;42558;52.388;13.390;2022-11-27T06:14:23;102384.43;;;2.01;100.00
56681;BME280;42558;52.388;13.390;2022-11-27T06:16:53;102380.70;;;1.93;100.00
56681;BME280;42558;52.388;13.390;2022-11-27T06:19:23;102382.11;;;1.98;100.00
56681;BME280;42558;52.388;13.390;2022-11-27T06:21:53;102378.94;;;2.00;100.00
56681;BME280;42558;52.388;13.390;2022-11-27T06:24:22;102377.02;;;1.92;100.00
56681;BME280;42558;52.388;13.390;2022-11-27T06:26:50;102376.64;;;1.89;100.00
56681;BME280;42558;52.388;13.390;2022-11-27T06:29:18;102374.54;;;1.89;100.00
56681;BME280;42558;52.388;13.390;2022-11-27T06:31:47;102372.66;;;1.87;100.00
56681;BME280;42558;52.388;13.390;2022-11-27T06:34:15;102372.13;;;1.82;100.00
56681;BME280;42558;52.388;13.390;2022-11-27T06:36:44;102374.80;;;1.76;100.00
56681;BME280;42558;52.388;13.390;2022-11-27T06:39:12;102381.77;;;1.65;100.00
56681;BME280;42558;52.388;13.390;2022-11-27T06:41:41;102378.81;;;1.74;100.00
56681;BME280;42558;52.388;13.390;2022-11-27T06:44:09;102379.58;;;1.80;100.00
56681;BME280;42558;52.388;13.390;2022-11-27T06:46:38;102378.54;;;1.71;100.00
56681;BME280;42558;52.388;13.390;2022-11-27T06:49:06;102377.77;;;1.70;100.00
56681;BME280;42558;52.388;13.390;2022-11-27T06:51:35;102378.98;;;1.63;100.00
56681;BME280;42558;52.388;13.390;2022-11-27T06:54:03;102381.52;;;1.51;100.00
56681;BME280;42558;52.388;13.390;2022-11-27T06:56:32;102381.66;;;1.57;100.00
56681;BME280;42558;52.388;13.390;2022-11-27T06:59:00;102387.81;;;1.52;100.00
56681;BME280;42558;52.388;13.390;2022-11-27T07:01:30;102390.19;;;1.49;100.00
56681;BME280;42558;52.388;13.390;2022-11-27T07:04:00;102387.09;;;1.55;100.00
56681;BME280;42558;52.388;13.390;2022-11-27T07:06:28;102386.44;;;1.49;100.00
56681;BME280;42558;52.388;13.390;2022-11-27T07:08:57;102384.64;;;1.46;100.00
56681;BME280;42558;52.388;13.390;2022-11-27T07:11:28;102384.80;;;1.48;100.00
56681;BME280;42558;52.388;13.390;2022-11-27T07:14:01;102387.20;;;1.44;100.00
56681;BME280;42558;52.388;13.390;2022-11-27T07:16:35;102374.85;;;1.39;100.00
56681;BME280;42558;52.388;13.390;2022-11-27T07:19:06;102366.32;;;1.40;100.00
56681;BME280;42558;52.388;13.390;2022-11-27T07:21:37;102359.55;;;1.42;100.00
56681;BME280;42558;52.388;13.390;2022-11-27T07:24:07;102355.55;;;1.44;100.00
56681;BME280;42558;52.388;13.390;2022-11-27T07:26:37;102360.27;;;1.49;100.00
56681;BME280;42558;52.388;13.390;2022-11-27T07:29:07;102362.98;;;1.49;100.00
56681;BME280;42558;52.388;13.390;2022-11-27T07:31:37;102359.59;;;1.50;100.00
56681;BME280;42558;52.388;13.390;2022-11-27T07:34:07;102357.63;;;1.55;100.00
56681;BME280;42558;52.388;13.390;2022-11-27T07:36:44;102363.60;;;1.57;100.00
56681;BME280;42558;52.388;13.390;2022-11-27T07:39:16;102359.17;;;1.58;100.00
56681;BME280;42558;52.388;13.390;2022-11-27T07:42:06;102352.28;;;1.56;100.00
56681;BME280;42558;52.388;13.390;2022-11-27T07:44:58;102351.98;;;1.61;100.00
56681;BME280;42558;52.388;13.390;2022-11-27T07:47:29;102352.20;;;1.69;100.00
56681;BME280;42558;52.388;13.390;2022-11-27T07:49:59;102352.47;;;1.74;100.00
56681;BME280;42558;52.388;13.390;2022-11-27T07:52:29;102351.69;;;1.83;100.00
56681;BME280;42558;52.388;13.390;2022-11-27T07:54:59;102348.98;;;1.88;100.00
56681;BME280;42558;52.388;13.390;2022-11-27T07:57:29;102346.67;;;1.85;100.00
56681;BME280;42558;52.388;13.390;2022-11-27T07:59:58;102344.96;;;1.85;100.00
56681;BME280;42558;52.388;13.390;2022-11-27T08:02:28;102343.13;;;1.89;100.00
56681;BME280;42558;52.388;13.390;2022-11-27T08:04:58;102346.07;;;1.91;100.00
56681;BME280;42558;52.388;13.390;2022-11-27T08:07:29;102346.05;;;1.91;100.00
56681;BME280;42558;52.388;13.390;2022-11-27T08:09:59;102340.90;;;1.89;100.00
56681;BME280;42558;52.388;13.390;2022-11-27T08:12:27;102340.78;;;1.90;100.00
56681;BME280;42558;52.388;13.390;2022-11-27T08:14:56;102341.73;;;1.91;100.00
56681;BME280;42558;52.388;13.390;2022-11-27T08:17:24;102342.66;;;1.92;100.00
56681;BME280;42558;52.388;13.390;2022-11-27T08:19:52;102344.38;;;1.92;100.00
56681;BME280;42558;52.388;13.390;2022-11-27T08:22:21;102338.14;;;1.89;100.00
56681;BME280;42558;52.388;13.390;2022-11-27T08:24:49;102336.56;;;1.92;100.00
56681;BME280;42558;52.388;13.390;2022-11-27T08:27:18;102341.39;;;1.94;100.00
56681;BME280;42558;52.388;13.390;2022-11-27T08:29:46;102345.95;;;1.99;100.00
56681;BME280;42558;52.388;13.390;2022-11-27T08:32:15;102343.40;;;2.02;100.00
56681;BME280;42558;52.388;13.390;2022-11-27T08:34:43;102338.40;;;2.05;100.00
56681;BME280;42558;52.388;13.390;2022-11-27T08:37:11;102344.58;;;2.09;100.00
56681;BME280;42558;52.388;13.390;2022-11-27T08:39:40;102340.21;;;2.15;100.00
56681;BME280;42558;52.388;13.390;2022-11-27T08:42:10;102334.41;;;2.16;100.00
56681;BME280;42558;52.388;13.390;2022-11-27T08:44:40;102333.77;;;2.24;100.00
56681;BME280;42558;52.388;13.390;2022-11-27T08:47:08;102334.94;;;2.31;100.00
56681;BME280;42558;52.388;13.390;2022-11-27T08:49:37;102332.10;;;2.35;100.00
56681;BME280;42558;52.388;13.390;2022-11-27T08:52:12;102335.54;;;2.44;100.00
56681;BME280;42558;52.388;13.390;2022-11-27T08:54:42;102336.91;;;2.49;100.00
56681;BME280;42558;52.388;13.390;2022-11-27T08:57:12;102335.20;;;2.74;100.00
56681;BME280;42558;52.388;13.390;2022-11-27T08:59:41;102335.55;;;3.04;100.00
56681;BME280;42558;52.388;13.390;2022-11-27T09:02:11;102336.90;;;3.05;100.00
56681;BME280;42558;52.388;13.390;2022-11-27T09:04:42;102338.13;;;3.13;100.00
56681;BME280;42558;52.388;13.390;2022-11-27T09:07:14;102333.91;;;3.43;100.00
56681;BME280;42558;52.388;13.390;2022-11-27T09:09:45;102335.05;;;3.68;100.00
56681;BME280;42558;52.388;13.390;2022-11-27T09:12:15;102328.64;;;3.94;100.00
56681;BME280;42558;52.388;13.390;2022-11-27T09:14:45;102327.39;;;3.65;100.00
56681;BME280;42558;52.388;13.390;2022-11-27T09:17:15;102325.63;;;3.49;100.00
56681;BME280;42558;52.388;13.390;2022-11-27T09:19:45;102323.88;;;3.43;100.00
56681;BME280;42558;52.388;13.390;2022-11-27T09:22:15;102323.88;;;3.46;100.00
56681;BME280;42558;52.388;13.390;2022-11-27T09:24:45;102322.98;;;3.56;100.00
56681;BME280;42558;52.388;13.390;2022-11-27T09:27:15;102316.79;;;3.70;100.00
56681;BME280;42558;52.388;13.390;2022-11-27T09:29:45;102313.69;;;4.43;100.00
56681;BME280;42558;52.388;13.390;2022-11-27T09:32:15;102317.55;;;4.46;100.00
56681;BME280;42558;52.388;13.390;2022-11-27T09:34:45;102313.50;;;4.32;100.00
56681;BME280;42558;52.388;13.390;2022-11-27T09:37:14;102309.55;;;4.27;100.00
56681;BME280;42558;52.388;13.390;2022-11-27T09:39:44;102308.76;;;4.31;100.00
56681;BME280;42558;52.388;13.390;2022-11-27T09:42:59;102308.38;;;4.53;100.00
56681;BME280;42558;52.388;13.390;2022-11-27T09:45:45;102303.20;;;4.73;100.00
56681;BME280;42558;52.388;13.390;2022-11-27T09:48:39;102299.17;;;4.98;100.00
56681;BME280;42558;52.388;13.390;2022-11-27T09:51:41;102289.77;;;5.36;100.00
56681;BME280;42558;52.388;13.390;2022-11-27T09:54:58;102286.20;;;6.70;99.18
56681;BME280;42558;52.388;13.390;2022-11-27T09:57:37;102279.27;;;7.17;96.79
56681;BME280;42558;52.388;13.390;2022-11-27T10:00:18;102277.32;;;7.03;92.88
56681;BME280;42558;52.388;13.390;2022-11-27T10:02:47;102280.55;;;6.60;94.74
56681;BME280;42558;52.388;13.390;2022-11-27T10:05:46;102279.55;;;7.01;97.66
56681;BME280;42558;52.388;13.390;2022-11-27T10:09:40;102273.55;;;7.74;88.61
56681;BME280;42558;52.388;13.390;2022-11-27T10:17:53;102257.16;;;11.40;75.14
56681;BME280;42558;52.388;13.390;2022-11-27T10:20:50;102259.23;;;11.15;71.77
56681;BME280;42558;52.388;13.390;2022-11-27T10:26:14;102257.70;;;10.21;76.81
56681;BME280;42558;52.388;13.390;2022-11-27T10:29:04;102250.22;;;12.06;71.85
56681;BME280;42558;52.388;13.390;2022-11-27T10:31:47;102248.58;;;12.38;67.65
56681;BME280;42558;52.388;13.390;2022-11-27T10:37:04;102245.04;;;10.52;71.05
56681;BME280;42558;52.388;13.390;2022-11-27T10:39:44;102246.91;;;10.79;73.44
56681;BME280;42558;52.388;13.390;2022-11-27T10:42:26;102244.23;;;12.07;70.05
56681;BME280;42558;52.388;13.390;2022-11-27T10:46:08;102241.83;;;11.44;69.41
56681;BME280;42558;52.388;13.390;2022-11-27T10:48:29;102232.70;;;11.35;70.31
56681;BME280;42558;52.388;13.390;2022-11-27T10:50:59;102232.39;;;10.48;74.16
56681;BME280;42558;52.388;13.390;2022-11-27T10:53:33;102223.16;;;11.40;71.11
56681;BME280;42558;52.388;13.390;2022-11-27T10:56:18;102230.48;;;10.62;70.59
56681;BME280;42558;52.388;13.390;2022-11-27T10:58:56;102232.55;;;9.43;77.35
56681;BME280;42558;52.388;13.390;2022-11-27T11:01:47;102239.45;;;8.19;82.60
56681;BME280;42558;52.388;13.390;2022-11-27T11:04:27;102240.44;;;7.24;89.84
56681;BME280;42558;52.388;13.390;2022-11-27T11:07:28;102243.50;;;6.72;93.78
56681;BME280;42558;52.388;13.390;2022-11-27T11:09:59;102243.21;;;6.60;95.41
56681;BME280;42558;52.388;13.390;2022-11-27T11:12:29;102236.89;;;5.99;98.42
56681;BME280;42558;52.388;13.390;2022-11-27T11:14:59;102231.71;;;5.82;100.00
56681;BME280;42558;52.388;13.390;2022-11-27T11:17:32;102229.70;;;5.56;100.00
56681;BME280;42558;52.388;13.390;2022-11-27T11:20:20;102236.05;;;5.42;100.00
56681;BME280;42558;52.388;13.390;2022-11-27T11:22:49;102246.68;;;5.30;100.00
56681;BME280;42558;52.388;13.390;2022-11-27T11:25:19;102243.14;;;5.20;100.00
56681;BME280;42558;52.388;13.390;2022-11-27T11:27:50;102237.70;;;5.23;100.00
56681;BME280;42558;52.388;13.390;2022-11-27T11:30:25;102229.38;;;5.24;100.00
56681;BME280;42558;52.388;13.390;2022-11-27T11:33:00;102224.86;;;5.41;100.00
56681;BME280;42558;52.388;13.390;2022-11-27T11:35:34;102227.61;;;5.59;100.00
56681;BME280;42558;52.388;13.390;2022-11-27T11:38:16;102222.21;;;5.71;100.00
56681;BME280;42558;52.388;13.390;2022-11-27T11:41:05;102212.63;;;5.90;100.00
56681;BME280;42558;52.388;13.390;2022-11-27T11:43:36;102214.56;;;6.12;100.00
56681;BME280;42558;52.388;13.390;2022-11-27T11:46:24;102217.31;;;6.30;100.00
56681;BME280;42558;52.388;13.390;2022-11-27T11:49:06;102221.54;;;6.21;100.00
56681;BME280;42558;52.388;13.390;2022-11-27T11:58:08;102217.61;;;6.10;100.00
56681;BME280;42558;52.388;13.390;2022-11-27T12:01:00;102210.23;;;6.19;100.00
56681;BME280;42558;52.388;13.390;2022-11-27T12:06:47;102204.72;;;6.07;100.00
56681;BME280;42558;52.388;13.390;2022-11-27T12:12:30;102198.39;;;6.19;100.00
56681;BME280;42558;52.388;13.390;2022-11-27T12:15:14;102191.76;;;6.19;100.00
56681;BME280;42558;52.388;13.390;2022-11-27T12:18:00;102193.52;;;6.22;100.00
56681;BME280;42558;52.388;13.390;2022-11-27T12:43:50;102148.25;;;5.90;100.00
56681;BME280;42558;52.388;13.390;2022-11-27T12:46:50;102135.53;;;5.90;100.00
56681;BME280;42558;52.388;13.390;2022-11-27T12:49:46;102128.59;;;5.88;100.00
56681;BME280;42558;52.388;13.390;2022-11-27T12:52:22;102127.82;;;5.84;100.00
56681;BME280;42558;52.388;13.390;2022-11-27T12:55:12;102122.49;;;5.86;100.00
56681;BME280;42558;52.388;13.390;2022-11-27T13:00:26;102119.02;;;5.89;100.00
56681;BME280;42558;52.388;13.390;2022-11-27T13:05:56;102110.55;;;5.90;100.00
56681;BME280;42558;52.388;13.390;2022-11-27T13:08:48;102110.58;;;5.94;100.00
56681;BME280;42558;52.388;13.390;2022-11-27T13:11:32;102108.23;;;5.92;100.00
56681;BME280;42558;52.388;13.390;2022-11-27T13:14:18;102100.65;;;5.97;100.00
56681;BME280;42558;52.388;13.390;2022-11-27T13:16:59;102102.38;;;5.94;100.00
56681;BME280;42558;52.388;13.390;2022-11-27T13:19:48;102102.10;;;5.95;100.00
56681;BME280;42558;52.388;13.390;2022-11-27T13:22:31;102102.95;;;5.92;100.00
56681;BME280;42558;52.388;13.390;2022-11-27T13:25:04;102093.31;;;5.91;100.00
56681;BME280;42558;52.388;13.390;2022-11-27T13:27:36;102089.77;;;5.84;100.00
56681;BME280;42558;52.388;13.390;2022-11-27T13:30:14;102085.77;;;5.84;100.00
56681;BME280;42558;52.388;13.390;2022-11-27T13:33:00;102082.88;;;5.83;100.00
56681;BME280;42558;52.388;13.390;2022-11-27T13:35:38;102075.41;;;5.80;100.00
56681;BME280;42558;52.388;13.390;2022-11-27T13:38:22;102072.86;;;5.78;100.00
56681;BME280;42558;52.388;13.390;2022-11-27T13:40:54;102070.70;;;5.80;100.00
56681;BME280;42558;52.388;13.390;2022-11-27T13:43:48;102071.91;;;5.70;100.00
56681;BME280;42558;52.388;13.390;2022-11-27T13:46:24;102068.39;;;5.60;100.00
56681;BME280;42558;52.388;13.390;2022-11-27T13:49:04;102061.61;;;5.57;100.00
56681;BME280;42558;52.388;13.390;2022-11-27T13:51:36;102055.82;;;5.54;100.00
56681;BME280;42558;52.388;13.390;2022-11-27T13:54:18;102053.06;;;5.51;100.00
56681;BME280;42558;52.388;13.390;2022-11-27T13:56:55;102046.64;;;5.48;100.00
56681;BME280;42558;52.388;13.390;2022-11-27T13:59:24;102046.30;;;5.45;100.00
56681;BME280;42558;52.388;13.390;2022-11-27T14:02:05;102046.35;;;5.40;100.00
56681;BME280;42558;52.388;13.390;2022-11-27T14:04:47;102039.72;;;5.37;100.00
56681;BME280;42558;52.388;13.390;2022-11-27T14:07:39;102037.91;;;5.29;100.00
56681;BME280;42558;52.388;13.390;2022-11-27T14:10:23;102042.15;;;5.27;100.00
56681;BME280;42558;52.388;13.390;2022-11-27T14:13:06;102048.44;;;5.21;100.00
56681;BME280;42558;52.388;13.390;2022-11-27T14:15:37;102051.33;;;5.10;100.00
56681;BME280;42558;52.388;13.390;2022-11-27T14:18:19;102044.37;;;5.04;100.00
56681;BME280;42558;52.388;13.390;2022-11-27T14:21:19;102039.06;;;5.00;100.00
56681;BME280;42558;52.388;13.390;2022-11-27T14:23:51;102039.05;;;4.96;100.00
56681;BME280;42558;52.388;13.390;2022-11-27T14:26:23;102040.65;;;4.88;100.00